createdAt,value
2022-10-21T00:01:31.753Z,14.67
2022-10-21T00:03:58.543Z,14.70
2022-10-21T00:06:25.401Z,13.77
2022-10-21T00:08:52.186Z,13.63
2022-10-21T00:11:18.667Z,12.80
2022-10-21T00:13:45.376Z,12.83
2022-10-21T00:16:14.840Z,12.70
2022-10-21T00:18:43.337Z,12.23
2022-10-21T00:21:19.303Z,11.27
2022-10-21T00:23:47.159Z,10.70
2022-10-21T00:26:15.187Z,12.13
2022-10-21T00:28:42.565Z,11.10
2022-10-21T00:31:11.012Z,11.40
2022-10-21T00:33:37.575Z,10.93
2022-10-21T00:36:07.079Z,11.53
2022-10-21T00:38:35.326Z,11.17
2022-10-21T00:41:01.828Z,11.47
2022-10-21T00:43:28.493Z,10.53
2022-10-21T00:46:03.037Z,11.17
2022-10-21T00:48:42.296Z,10.77
2022-10-21T00:51:16.886Z,10.80
2022-10-21T00:53:46.984Z,10.53
2022-10-21T00:56:18.195Z,12.00
2022-10-21T00:58:47.871Z,10.67
2022-10-21T01:01:17.888Z,11.03
2022-10-21T01:03:47.142Z,11.13
2022-10-21T01:06:15.525Z,11.43
2022-10-21T01:08:41.929Z,11.27
2022-10-21T01:11:13.455Z,11.63
2022-10-21T01:14:05.892Z,11.03
2022-10-21T01:16:50.165Z,11.73
2022-10-21T01:19:35.175Z,10.60
2022-10-21T01:22:07.594Z,10.40
2022-10-21T01:24:58.569Z,11.13
2022-10-21T01:27:39.644Z,10.30
2022-10-21T01:30:31.289Z,10.70
2022-10-21T01:33:32.163Z,9.83
2022-10-21T01:36:10.169Z,9.00
2022-10-21T01:39:04.485Z,9.03
2022-10-21T01:41:41.297Z,8.33
2022-10-21T01:44:22.644Z,8.20
2022-10-21T01:46:57.876Z,7.73
2022-10-21T01:49:38.610Z,7.40
2022-10-21T01:52:05.859Z,7.43
2022-10-21T01:54:37.725Z,7.67
2022-10-21T01:57:07.255Z,7.70
2022-10-21T01:59:34.714Z,7.17
2022-10-21T02:02:04.171Z,7.20
2022-10-21T02:04:34.144Z,7.13
2022-10-21T02:07:00.686Z,7.27
2022-10-21T02:09:27.187Z,6.57
2022-10-21T02:11:58.777Z,7.20
2022-10-21T02:14:48.449Z,6.73
2022-10-21T02:17:18.250Z,7.03
2022-10-21T02:19:46.412Z,7.40
2022-10-21T02:22:16.497Z,6.47
2022-10-21T02:24:52.455Z,6.87
2022-10-21T02:27:19.565Z,6.80
2022-10-21T02:29:48.406Z,6.53
2022-10-21T02:32:46.053Z,7.00
2022-10-21T02:35:28.469Z,6.87
2022-10-21T02:38:14.637Z,6.83
2022-10-21T02:40:48.044Z,6.67
2022-10-21T02:43:19.921Z,7.17
2022-10-21T02:45:47.878Z,6.60
2022-10-21T02:48:14.197Z,6.80
2022-10-21T02:50:40.695Z,6.87
2022-10-21T02:53:10.683Z,6.83
2022-10-21T02:55:37.167Z,6.93
2022-10-21T02:58:03.679Z,6.77
2022-10-21T03:00:32.761Z,6.90
2022-10-21T03:02:59.646Z,6.03
2022-10-21T03:05:26.054Z,6.40
2022-10-21T03:07:52.605Z,6.37
2022-10-21T03:10:18.943Z,6.37
2022-10-21T03:12:45.254Z,5.73
2022-10-21T03:15:11.681Z,5.90
2022-10-21T03:17:38.209Z,5.27
2022-10-21T03:20:05.236Z,5.70
2022-10-21T03:22:33.417Z,5.57
2022-10-21T03:24:59.737Z,5.80
2022-10-21T03:27:27.123Z,5.50
2022-10-21T03:29:53.474Z,5.70
2022-10-21T03:32:19.905Z,5.77
2022-10-21T03:34:46.242Z,5.23
2022-10-21T03:37:12.746Z,5.13
2022-10-21T03:39:39.224Z,5.30
2022-10-21T03:42:05.629Z,5.40
2022-10-21T03:44:32.055Z,5.17
2022-10-21T03:46:58.877Z,5.00
2022-10-21T03:49:25.303Z,4.93
2022-10-21T03:51:51.720Z,4.90
2022-10-21T03:54:18.434Z,5.53
2022-10-21T03:56:45.037Z,4.73
2022-10-21T03:59:11.687Z,4.60
2022-10-21T04:01:38.240Z,4.60
2022-10-21T04:04:04.800Z,4.67
2022-10-21T04:06:31.475Z,4.57
2022-10-21T04:08:58.287Z,4.93
2022-10-21T04:11:24.877Z,4.70
2022-10-21T04:13:51.608Z,4.97
2022-10-21T04:16:20.552Z,4.67
2022-10-21T04:18:47.477Z,4.90
2022-10-21T04:21:14.711Z,4.23
2022-10-21T04:23:41.365Z,4.90
2022-10-21T04:26:08.460Z,4.63
2022-10-21T04:28:35.226Z,4.93
2022-10-21T04:31:02.042Z,4.30
2022-10-21T04:33:28.746Z,4.37
2022-10-21T04:35:55.715Z,4.63
2022-10-21T04:38:23.043Z,4.57
2022-10-21T04:40:56.657Z,4.40
2022-10-21T04:43:23.075Z,4.00
2022-10-21T04:45:49.610Z,4.63
2022-10-21T04:48:16.168Z,3.97
2022-10-21T04:50:42.569Z,4.20
2022-10-21T04:53:08.964Z,3.93
2022-10-21T04:55:38.068Z,4.33
2022-10-21T04:58:04.399Z,4.00
2022-10-21T05:00:30.768Z,4.40
2022-10-21T05:02:59.623Z,4.03
2022-10-21T05:05:26.069Z,3.70
2022-10-21T05:07:52.648Z,3.93
2022-10-21T05:10:19.195Z,3.50
2022-10-21T05:12:45.710Z,3.67
2022-10-21T05:15:13.967Z,3.87
2022-10-21T05:17:40.853Z,3.87
2022-10-21T05:20:08.233Z,3.50
2022-10-21T05:22:34.533Z,3.80
2022-10-21T05:25:00.958Z,3.30
2022-10-21T05:27:27.734Z,3.40
2022-10-21T05:29:54.110Z,3.40
2022-10-21T05:32:20.507Z,3.73
2022-10-21T05:34:46.921Z,3.63
2022-10-21T05:37:13.223Z,3.40
2022-10-21T05:42:05.913Z,4.70
2022-10-21T05:44:32.556Z,3.20
2022-10-21T05:46:58.996Z,3.13
2022-10-21T05:49:25.559Z,3.80
2022-10-21T05:51:51.949Z,3.53
2022-10-21T05:54:18.413Z,3.20
2022-10-21T05:56:44.914Z,3.60
2022-10-21T05:59:11.691Z,3.30
2022-10-21T06:01:39.785Z,3.13
2022-10-21T06:04:06.498Z,3.37
2022-10-21T06:06:32.893Z,3.60
2022-10-21T06:09:00.594Z,3.40
2022-10-21T06:11:27.179Z,3.00
2022-10-21T06:13:53.560Z,3.20
2022-10-21T06:16:20.062Z,3.33
2022-10-21T06:18:46.594Z,3.23
2022-10-21T06:21:13.273Z,3.40
2022-10-21T06:23:39.983Z,3.43
2022-10-21T06:26:11.247Z,3.23
2022-10-21T06:28:39.142Z,3.10
2022-10-21T06:31:06.674Z,4.30
2022-10-21T06:33:33.529Z,3.30
2022-10-21T06:36:00.223Z,3.93
2022-10-21T06:38:26.925Z,3.10
2022-10-21T06:41:01.175Z,3.27
2022-10-21T06:43:27.519Z,3.47
2022-10-21T06:45:59.286Z,3.67
2022-10-21T06:48:25.778Z,3.30
2022-10-21T06:51:04.399Z,3.20
2022-10-21T06:53:33.965Z,3.80
2022-10-21T06:56:17.885Z,3.10
2022-10-21T06:58:48.908Z,3.30
2022-10-21T07:01:33.676Z,3.20
2022-10-21T07:04:01.880Z,3.17
2022-10-21T07:06:28.389Z,3.20
2022-10-21T07:08:59.287Z,2.90
2022-10-21T07:11:27.531Z,3.20
2022-10-21T07:13:54.416Z,2.70
2022-10-21T07:16:25.041Z,3.13
2022-10-21T07:18:51.531Z,2.50
2022-10-21T07:21:20.954Z,2.63
2022-10-21T07:23:49.153Z,2.57
2022-10-21T07:26:15.696Z,2.57
2022-10-21T07:28:46.689Z,2.60
2022-10-21T07:31:18.256Z,2.90
2022-10-21T07:33:44.967Z,2.60
2022-10-21T07:36:16.100Z,2.73
2022-10-21T07:38:46.500Z,3.17
2022-10-21T07:41:20.375Z,2.80
2022-10-21T07:43:47.842Z,3.00
2022-10-21T07:46:14.730Z,3.10
2022-10-21T07:48:41.157Z,3.33
2022-10-21T07:51:11.156Z,3.10
2022-10-21T07:53:38.839Z,2.57
2022-10-21T07:56:12.434Z,2.73
2022-10-21T07:58:39.150Z,2.50
2022-10-21T08:01:07.902Z,3.27
2022-10-21T08:03:34.726Z,2.70
2022-10-21T08:06:02.025Z,3.57
2022-10-21T08:08:29.035Z,2.87
2022-10-21T08:10:56.056Z,3.20
2022-10-21T08:13:22.672Z,3.20
2022-10-21T08:15:52.980Z,2.83
2022-10-21T08:18:20.780Z,3.17
2022-10-21T08:20:49.037Z,2.77
2022-10-21T08:23:17.197Z,2.97
2022-10-21T08:25:54.593Z,4.47
2022-10-21T08:28:22.685Z,2.70
2022-10-21T08:30:49.033Z,2.73
2022-10-21T08:33:15.936Z,3.00
2022-10-21T08:35:44.117Z,3.07
2022-10-21T08:38:10.931Z,3.17
2022-10-21T08:40:45.368Z,3.00
2022-10-21T08:43:21.201Z,3.03
2022-10-21T08:46:15.840Z,2.80
2022-10-21T08:48:54.745Z,3.00
2022-10-21T08:51:33.197Z,3.43
2022-10-21T08:54:24.111Z,4.00
2022-10-21T08:56:56.562Z,3.87
2022-10-21T08:59:24.940Z,3.73
2022-10-21T09:02:12.613Z,3.80
2022-10-21T09:05:00.758Z,3.60
2022-10-21T09:08:11.856Z,4.03
2022-10-21T09:11:11.447Z,3.77
2022-10-21T09:13:56.042Z,4.33
2022-10-21T09:16:43.124Z,3.93
2022-10-21T09:19:40.537Z,4.20
2022-10-21T09:22:34.750Z,5.70
2022-10-21T09:25:27.281Z,5.40
2022-10-21T09:27:56.797Z,6.40
2022-10-21T09:30:24.578Z,5.53
2022-10-21T09:32:56.735Z,4.30
2022-10-21T09:35:43.554Z,4.33
2022-10-21T09:38:33.713Z,4.83
2022-10-21T09:41:03.306Z,4.67
2022-10-21T09:43:30.416Z,4.80
2022-10-21T09:45:58.060Z,4.97
2022-10-21T09:48:24.306Z,4.50
2022-10-21T09:50:58.420Z,5.40
2022-10-21T09:53:34.300Z,4.80
2022-10-21T09:56:11.561Z,4.93
2022-10-21T09:58:37.782Z,4.20
2022-10-21T10:01:06.321Z,3.90
2022-10-21T10:03:41.773Z,4.27
2022-10-21T10:06:08.438Z,4.33
2022-10-21T10:08:47.423Z,3.67
2022-10-21T10:11:17.589Z,4.50
2022-10-21T10:13:54.348Z,3.97
2022-10-21T10:16:26.913Z,3.80
2022-10-21T10:19:13.970Z,4.07
2022-10-21T10:21:40.430Z,4.67
2022-10-21T10:24:16.473Z,4.40
2022-10-21T10:26:43.768Z,4.70
2022-10-21T10:29:16.157Z,4.47
2022-10-21T10:31:50.846Z,4.90
2022-10-21T10:34:24.161Z,4.73
2022-10-21T10:37:01.494Z,4.80
2022-10-21T10:39:31.807Z,4.50
2022-10-21T10:41:58.744Z,4.63
2022-10-21T10:44:35.708Z,4.43
2022-10-21T10:47:04.142Z,4.57
2022-10-21T10:49:50.775Z,4.67
2022-10-21T10:52:24.117Z,4.40
2022-10-21T10:55:12.005Z,4.70
2022-10-21T10:57:51.998Z,4.37
2022-10-21T11:00:25.287Z,4.80
2022-10-21T11:03:04.329Z,5.37
2022-10-21T11:05:44.399Z,8.30
2022-10-21T11:08:15.159Z,6.87
2022-10-21T11:10:53.407Z,5.87
2022-10-21T11:13:22.517Z,5.20
2022-10-21T11:16:11.128Z,4.37
2022-10-21T11:18:50.128Z,4.47
2022-10-21T11:21:31.717Z,4.40
2022-10-21T11:24:04.309Z,4.53
2022-10-21T11:26:37.129Z,4.27
2022-10-21T11:29:34.505Z,4.50
2022-10-21T11:32:12.345Z,4.67
2022-10-21T11:35:16.002Z,4.43
2022-10-21T11:38:03.853Z,5.17
2022-10-21T11:40:52.144Z,4.40
2022-10-21T11:43:18.606Z,4.60
2022-10-21T11:46:08.438Z,5.03
2022-10-21T11:49:18.030Z,4.30
2022-10-21T11:52:22.188Z,4.20
2022-10-21T11:55:10.059Z,4.03
2022-10-21T11:57:50.067Z,3.90
2022-10-21T12:00:21.248Z,3.63
2022-10-21T12:03:11.289Z,3.07
2022-10-21T12:05:49.451Z,3.17
2022-10-21T12:08:38.363Z,3.20
2022-10-21T12:11:21.530Z,3.20
2022-10-21T12:13:54.381Z,2.73
2022-10-21T12:16:26.682Z,2.60
2022-10-21T12:19:01.002Z,2.63
2022-10-21T12:21:30.606Z,2.00
2022-10-21T12:24:36.687Z,2.20
2022-10-21T12:27:17.743Z,2.03
2022-10-21T12:29:51.757Z,2.20
2022-10-21T12:32:25.151Z,2.13
2022-10-21T12:34:53.221Z,2.07
2022-10-21T12:37:50.589Z,2.17
2022-10-21T12:40:37.262Z,2.30
2022-10-21T12:43:06.748Z,2.20
2022-10-21T12:45:36.461Z,1.97
2022-10-21T12:48:22.149Z,1.90
2022-10-21T12:51:00.152Z,1.73
2022-10-21T12:53:35.568Z,2.00
2022-10-21T12:56:02.074Z,1.80
2022-10-21T12:58:31.496Z,1.97
2022-10-21T13:01:00.568Z,1.83
2022-10-21T13:03:45.371Z,1.50
2022-10-21T13:06:12.660Z,1.80
2022-10-21T13:08:53.081Z,1.60
2022-10-21T13:11:34.912Z,1.67
2022-10-21T13:14:16.648Z,1.60
2022-10-21T13:16:43.387Z,1.60
2022-10-21T13:19:12.661Z,2.07
2022-10-21T13:21:41.136Z,1.57
2022-10-21T13:24:29.693Z,1.50
2022-10-21T13:27:04.944Z,1.60
2022-10-21T13:29:42.513Z,1.43
2022-10-21T13:32:22.028Z,1.43
2022-10-21T13:34:48.581Z,1.50
2022-10-21T13:37:16.965Z,2.30
2022-10-21T13:39:43.920Z,1.67
2022-10-21T13:42:17.315Z,1.50
2022-10-21T13:44:52.388Z,1.30
2022-10-21T13:47:24.842Z,1.70
2022-10-21T13:49:53.564Z,1.90
2022-10-21T13:52:20.014Z,1.60
2022-10-21T13:54:46.600Z,1.60
2022-10-21T13:57:17.824Z,1.80
2022-10-21T13:59:44.244Z,1.50
2022-10-21T14:02:24.186Z,1.40
2022-10-21T14:04:50.524Z,1.40
2022-10-21T14:07:19.249Z,1.17
2022-10-21T14:09:48.105Z,1.40
2022-10-21T14:12:32.239Z,1.63
2022-10-21T14:15:05.818Z,1.50
2022-10-21T14:17:32.912Z,1.40
2022-10-21T14:20:06.646Z,1.25
2022-10-21T14:22:33.458Z,1.48
2022-10-21T14:25:04.157Z,1.60
2022-10-21T14:27:33.691Z,1.40
2022-10-21T14:30:06.512Z,1.50
2022-10-21T14:32:33.896Z,1.50
2022-10-21T14:35:09.657Z,0.98
2022-10-21T14:37:43.134Z,1.13
2022-10-21T14:40:29.509Z,1.30
2022-10-21T14:42:56.067Z,1.30
2022-10-21T14:45:27.191Z,1.30
2022-10-21T14:48:07.096Z,1.70
2022-10-21T14:50:33.853Z,1.30
2022-10-21T14:53:00.267Z,1.20
2022-10-21T14:55:30.078Z,1.40
2022-10-21T14:58:03.977Z,1.37
2022-10-21T15:00:34.829Z,1.70
2022-10-21T15:03:01.604Z,1.30
2022-10-21T15:06:07.365Z,1.30
2022-10-21T15:08:34.104Z,1.10
2022-10-21T15:11:07.459Z,1.30
2022-10-21T15:13:33.790Z,1.03
2022-10-21T15:16:01.756Z,1.50
2022-10-21T15:18:31.689Z,1.37
2022-10-21T15:21:06.900Z,1.10
2022-10-21T15:23:51.940Z,1.20
2022-10-21T15:26:23.963Z,1.30
2022-10-21T15:28:50.941Z,1.27
2022-10-21T15:31:26.014Z,1.50
2022-10-21T15:33:54.467Z,1.50
2022-10-21T15:36:21.355Z,1.20
2022-10-21T15:38:48.533Z,1.30
2022-10-21T15:41:21.210Z,1.27
2022-10-21T15:43:58.128Z,1.50
2022-10-21T15:46:29.428Z,1.70
2022-10-21T15:48:56.988Z,1.27
2022-10-21T15:51:23.422Z,1.30
2022-10-21T15:53:49.854Z,1.20
2022-10-21T15:56:19.477Z,1.43
2022-10-21T15:58:46.589Z,1.40
2022-10-21T16:01:15.940Z,1.40
2022-10-21T16:03:43.977Z,1.60
2022-10-21T16:06:16.932Z,1.23
2022-10-21T16:08:43.466Z,1.70
2022-10-21T16:11:13.721Z,1.40
2022-10-21T16:13:40.407Z,1.33
2022-10-21T16:16:19.525Z,1.77
2022-10-21T16:18:46.761Z,1.60
2022-10-21T16:21:15.001Z,1.73
2022-10-21T16:23:42.185Z,1.60
2022-10-21T16:26:19.596Z,1.60
2022-10-21T16:39:58.387Z,10.27
2022-10-21T16:42:24.794Z,3.20
2022-10-21T16:44:51.293Z,3.10
2022-10-21T16:47:19.608Z,2.50
2022-10-21T16:49:46.754Z,2.07
2022-10-21T16:52:13.966Z,2.07
2022-10-21T16:54:40.378Z,2.03
2022-10-21T16:57:07.374Z,2.20
2022-10-21T16:59:34.003Z,2.23
2022-10-21T17:02:01.050Z,1.83
2022-10-21T17:04:27.760Z,1.83
2022-10-21T17:06:55.238Z,1.67
2022-10-21T17:09:23.659Z,1.67
2022-10-21T17:11:49.991Z,2.17
2022-10-21T17:14:19.754Z,1.93
2022-10-21T17:16:46.672Z,1.90
2022-10-21T17:19:14.940Z,1.70
2022-10-21T17:21:41.888Z,2.27
2022-10-21T17:24:13.317Z,2.23
2022-10-21T17:26:39.988Z,2.33
2022-10-21T17:29:06.424Z,2.30
2022-10-21T17:31:32.817Z,2.43
2022-10-21T17:34:07.194Z,2.07
2022-10-21T17:36:34.780Z,2.17
2022-10-21T17:39:01.186Z,1.97
2022-10-21T17:41:27.750Z,2.10
2022-10-21T17:43:54.377Z,2.07
2022-10-21T17:46:23.770Z,2.27
2022-10-21T17:48:51.699Z,2.10
2022-10-21T17:51:18.912Z,2.57
2022-10-21T17:53:48.958Z,2.30
2022-10-21T17:56:15.871Z,2.43
2022-10-21T17:58:42.204Z,2.17
2022-10-21T18:01:11.090Z,2.57
2022-10-21T18:03:38.357Z,2.10
2022-10-21T18:06:08.094Z,1.87
2022-10-21T18:08:34.979Z,2.23
2022-10-21T18:11:02.133Z,2.10
2022-10-21T18:13:30.680Z,2.20
2022-10-21T18:16:03.796Z,2.40
2022-10-21T18:18:30.384Z,2.47
2022-10-21T18:21:08.581Z,2.10
2022-10-21T18:23:37.062Z,2.20
2022-10-21T18:26:09.175Z,2.30
2022-10-21T18:28:35.619Z,2.33
2022-10-21T18:31:02.921Z,2.10
2022-10-21T18:33:29.370Z,2.77
2022-10-21T18:35:56.028Z,2.70
2022-10-21T18:38:22.827Z,2.67
2022-10-21T18:40:56.536Z,2.30
2022-10-21T18:43:28.693Z,2.50
2022-10-21T18:45:55.243Z,2.87
2022-10-21T18:48:21.612Z,2.63
2022-10-21T18:50:47.975Z,2.40
2022-10-21T18:53:14.439Z,2.23
2022-10-21T18:55:40.889Z,2.60
2022-10-21T18:58:07.370Z,2.50
2022-10-21T19:00:34.632Z,2.20
2022-10-21T19:03:01.017Z,2.73
2022-10-21T19:05:27.449Z,2.20
2022-10-21T19:07:53.941Z,3.00
2022-10-21T19:10:20.454Z,3.30
2022-10-21T19:12:46.894Z,4.10
2022-10-21T19:15:13.413Z,5.10
2022-10-21T19:17:41.959Z,3.73
2022-10-21T19:20:08.789Z,3.57
2022-10-21T19:22:35.239Z,3.47
2022-10-21T19:25:01.809Z,3.73
2022-10-21T19:27:28.260Z,4.00
2022-10-21T19:29:54.707Z,4.00
2022-10-21T19:32:21.090Z,3.57
2022-10-21T19:34:47.424Z,4.13
2022-10-21T19:37:13.937Z,3.87
2022-10-21T19:39:40.674Z,3.97
2022-10-21T19:42:07.436Z,4.37
2022-10-21T19:44:33.911Z,3.93
2022-10-21T19:47:00.501Z,3.87
2022-10-21T19:49:27.070Z,3.80
2022-10-21T19:51:53.460Z,3.87
2022-10-21T19:54:19.868Z,4.07
2022-10-21T19:56:46.303Z,3.30
2022-10-21T19:59:12.818Z,3.50
2022-10-21T20:01:39.381Z,4.20
2022-10-21T20:04:06.373Z,4.30
2022-10-21T20:06:34.867Z,4.07
2022-10-21T20:09:04.420Z,4.20
2022-10-21T20:11:31.118Z,4.27
2022-10-21T20:13:58.229Z,4.60
2022-10-21T20:16:30.933Z,4.13
2022-10-21T20:18:57.870Z,4.00
2022-10-21T20:21:25.426Z,4.63
2022-10-21T20:23:52.714Z,4.53
2022-10-21T20:26:19.883Z,3.87
2022-10-21T20:28:46.375Z,4.70
2022-10-21T20:31:15.484Z,4.13
2022-10-21T20:33:44.247Z,4.30
2022-10-21T20:36:14.127Z,5.10
2022-10-21T20:38:41.490Z,5.37
2022-10-21T20:41:12.458Z,4.90
2022-10-21T20:43:40.387Z,5.80
2022-10-21T20:46:10.425Z,4.77
2022-10-21T20:48:41.106Z,5.20
2022-10-21T20:51:10.339Z,5.50
2022-10-21T20:53:39.993Z,4.37
2022-10-21T20:56:07.480Z,4.13
2022-10-21T20:58:35.518Z,4.00
2022-10-21T21:01:10.917Z,4.10
2022-10-21T21:03:41.753Z,4.20
2022-10-21T21:06:08.736Z,4.63
2022-10-21T21:08:36.766Z,4.53
2022-10-21T21:11:05.299Z,3.67
2022-10-21T21:13:31.868Z,4.30
2022-10-21T21:16:10.573Z,4.47
2022-10-21T21:18:38.859Z,4.43
2022-10-21T21:21:08.631Z,4.83
2022-10-21T21:23:35.391Z,5.13
2022-10-21T21:26:07.592Z,5.27
2022-10-21T21:28:36.454Z,4.47
2022-10-21T21:31:04.771Z,5.00
2022-10-21T21:33:32.147Z,4.60
2022-10-21T21:35:58.790Z,4.50
2022-10-21T21:38:26.540Z,4.30
2022-10-21T21:40:53.758Z,4.10
2022-10-21T21:43:20.576Z,3.50
2022-10-21T21:45:47.929Z,3.50
2022-10-21T21:50:43.731Z,3.83
2022-10-21T21:53:11.920Z,4.17
2022-10-21T21:55:38.700Z,4.90
2022-10-21T21:58:05.950Z,4.33
2022-10-21T22:00:33.130Z,4.30
2022-10-21T22:02:59.686Z,4.87
2022-10-21T22:05:27.190Z,4.40
2022-10-21T22:07:53.569Z,5.07
2022-10-21T22:10:19.892Z,4.23
2022-10-21T22:12:46.262Z,4.70
2022-10-21T22:15:19.778Z,4.43
2022-10-21T22:17:59.765Z,4.50
2022-10-21T22:20:26.244Z,4.23
2022-10-21T22:22:52.586Z,4.03
2022-10-21T22:25:19.103Z,4.27
2022-10-21T22:27:45.663Z,3.93
2022-10-21T22:30:15.569Z,4.50
2022-10-21T22:32:42.117Z,4.40
2022-10-21T22:35:09.640Z,4.73
2022-10-21T22:37:36.804Z,4.27
2022-10-21T22:40:03.976Z,4.70
2022-10-21T22:42:30.333Z,4.23
2022-10-21T22:44:56.757Z,4.27
2022-10-21T22:47:23.428Z,4.60
2022-10-21T22:49:50.783Z,3.97
2022-10-21T22:52:17.663Z,3.87
2022-10-21T22:54:49.558Z,3.90
2022-10-21T22:57:16.320Z,4.07
2022-10-21T22:59:44.176Z,3.57
2022-10-21T23:02:11.700Z,4.10
2022-10-21T23:04:38.224Z,3.90
2022-10-21T23:07:04.859Z,3.93
2022-10-21T23:09:31.501Z,4.20
2022-10-21T23:11:57.986Z,4.30
2022-10-21T23:14:24.478Z,4.00
2022-10-21T23:16:52.579Z,4.10
2022-10-21T23:19:19.225Z,3.60
2022-10-21T23:21:45.616Z,3.93
2022-10-21T23:24:12.108Z,4.33
2022-10-21T23:26:38.650Z,3.77
2022-10-21T23:29:05.087Z,4.10
2022-10-21T23:31:31.567Z,3.63
2022-10-21T23:33:58.003Z,3.53
2022-10-21T23:36:24.542Z,3.77
2022-10-21T23:38:54.370Z,3.70
2022-10-21T23:41:21.086Z,3.87
2022-10-21T23:43:47.551Z,3.23
2022-10-21T23:46:14.185Z,4.80
2022-10-21T23:48:40.591Z,3.93
2022-10-21T23:51:06.994Z,3.77
2022-10-21T23:53:33.400Z,3.10
2022-10-21T23:55:59.749Z,3.43
2022-10-21T23:58:26.182Z,4.57
